Startpagina
Satellietbeelden 10-daagse weersverwachtingenKlimaatWeer op zee Cyclonen Bliksem VliegveldenFAQ Nieuwsbrief Over ons
Weer : Europa Afrika Noord-Amerika Zuid-Amerika Azië Australië-Oceanië Overige
Talen Contact

Oostende, België

Internationale Luchthaven Oostende-Brugge

breedte: 51-12N, lengte: 002-52E, hoogte: 4 m


METAR: EBOS 260050Z 31007KT 9999 FEW030 11/06 Q1020 NOSIG
TAF: EBOS 252320Z 2600/2706 33008KT 9999 FEW020 SCT045

Tijdstip: 03:17 (01:17 UTC)

Actueel weer

Dit bericht is 27 minuten geleden gemaakt, om 00:50 UTC
Wind 7 kt uit het noordwesten
Temperatuur 11°C
Vochtigheid 71%
Druk 1020 hPa
Zicht 10 km of meer
Weinig wolken op 3000 ft

Eenheden wijzigen

Verwachting

Dit bericht is 1 uur en het 57 minuten geleden gemaakt, om 23:20 UTC
Verwachting geldig van 26 om 00 UTC tot 27 om 06 UTC
Wind 8 kt uit het noordnoordwesten
Zicht 10 km of meer
Weinig wolken op 2000 ft
Verspreide wolken op 4500 ft
Voor de informatie op deze site geldt een disclaimer
Weer : Europa Afrika Noord-Amerika Zuid-Amerika Azië Australië-Oceanië Overige
Satellietbeelden 10-daagse weersverwachtingenKlimaatWeer op zee Cyclonen Bliksem VliegveldenFAQ Talen Contact Nieuwsbrief Over ons